Time;durP1;ratioP1;P1;durP2;ratioP2;P2;SDS_P1;SDS_P2;PMS_P1;PMS_P2;Temp;Humidity;BMP_temperature;BMP_pressure;BME280_temperature;BME280_humidity;BME280_pressure;Samples;Min_cycle;Max_cycle;Signal;HPM_P1;HPM_P2
2022/03/02 00:01:15;;;;;;;144.55;36.53;;;;;;;2.66;100.00;102729.81;4757030;30;20189;-80
2022/03/02 00:03:42;;;;;;;143.63;37.00;;;;;;;2.64;100.00;102729.91;4770692;30;20027;-79
2022/03/02 00:06:08;;;;;;;166.55;38.20;;;;;;;2.63;100.00;102748.63;4769117;30;20032;-80
2022/03/02 00:08:33;;;;;;;190.45;39.65;;;;;;;2.62;100.00;102742.47;4780824;30;20030;-80
2022/03/02 00:10:58;;;;;;;178.70;39.63;;;;;;;2.59;100.00;102732.88;4771731;30;20105;-79
2022/03/02 00:13:24;;;;;;;172.82;39.00;;;;;;;2.57;100.00;102733.91;4769274;30;20046;-80
2022/03/02 00:15:49;;;;;;;189.70;40.88;;;;;;;2.56;100.00;102727.75;4770287;30;20035;-80
2022/03/02 00:18:15;;;;;;;236.00;41.42;;;;;;;2.57;100.00;102720.63;4768911;30;20051;-79
2022/03/02 00:20:41;;;;;;;232.07;42.58;;;;;;;2.53;100.00;102720.00;4772725;30;20120;-80
2022/03/02 00:23:07;;;;;;;205.18;42.50;;;;;;;2.55;100.00;102710.13;4772646;30;20035;-80
2022/03/02 00:25:34;;;;;;;219.50;45.03;;;;;;;2.55;100.00;102706.59;4758582;30;20575;-80
2022/03/02 00:27:59;;;;;;;100.10;31.55;;;;;;;2.66;100.00;102711.22;4772221;30;20459;-80
2022/03/02 00:30:28;;;;;;;113.20;32.90;;;;;;;2.59;100.00;102684.19;4772630;30;20036;-79
2022/03/02 00:32:54;;;;;;;163.52;38.67;;;;;;;2.75;100.00;102708.81;4772988;30;20039;-79
2022/03/02 00:35:20;;;;;;;223.02;41.88;;;;;;;2.67;100.00;102687.19;4757140;30;20400;-81
2022/03/02 00:37:46;;;;;;;303.92;43.55;;;;;;;2.59;100.00;102686.84;4775543;30;20098;-79
2022/03/02 00:40:12;;;;;;;199.88;40.85;;;;;;;2.51;100.00;102673.19;4771093;30;20040;-79
2022/03/02 00:42:38;;;;;;;281.52;42.47;;;;;;;2.59;100.00;102677.06;4772590;30;20126;-80
2022/03/02 00:45:04;;;;;;;204.85;41.10;;;;;;;2.61;100.00;102679.63;4778638;30;20105;-79
2022/03/02 00:47:30;;;;;;;255.35;43.65;;;;;;;2.62;100.00;102668.06;4772922;30;20702;-79
2022/03/02 00:49:55;;;;;;;216.32;40.03;;;;;;;2.56;100.00;102652.50;4772458;30;20059;-79
2022/03/02 00:52:22;;;;;;;249.23;40.50;;;;;;;2.65;100.00;102666.97;4772879;30;20035;-79
2022/03/02 00:54:47;;;;;;;236.07;42.50;;;;;;;2.66;100.00;102669.53;4771362;30;20039;-79
2022/03/02 00:57:13;;;;;;;248.50;39.95;;;;;;;2.64;100.00;102675.91;4775360;30;20128;-79
2022/03/02 00:59:38;;;;;;;247.93;38.92;;;;;;;2.66;100.00;102669.53;4790843;29;20031;-79
2022/03/02 01:02:04;;;;;;;297.42;40.45;;;;;;;2.66;100.00;102661.56;4772810;29;20485;-79
2022/03/02 01:04:29;;;;;;;328.20;42.10;;;;;;;2.67;100.00;102660.59;4771696;30;20096;-79
2022/03/02 01:06:55;;;;;;;247.13;38.17;;;;;;;2.67;100.00;102665.91;4771088;30;20054;-79
2022/03/02 01:09:21;;;;;;;380.30;42.10;;;;;;;2.58;100.00;102640.81;4771011;30;20089;-80
2022/03/02 01:11:46;;;;;;;277.13;38.30;;;;;;;2.61;100.00;102649.53;4771269;30;20084;-79
2022/03/02 01:14:12;;;;;;;507.15;43.60;;;;;;;2.69;100.00;102663.19;4772359;30;20119;-80
2022/03/02 01:16:37;;;;;;;359.05;39.08;;;;;;;2.67;100.00;102665.06;4792326;29;20077;-79
2022/03/02 01:19:03;;;;;;;415.02;39.60;;;;;;;2.54;100.00;102636.66;4781368;30;20062;-80
2022/03/02 01:21:29;;;;;;;643.10;44.85;;;;;;;2.60;100.00;102643.38;4791055;29;20058;-79
2022/03/02 01:23:56;;;;;;;330.55;38.22;;;;;;;2.71;100.00;102654.13;4785743;29;20035;-80
2022/03/02 01:26:24;;;;;;;297.50;39.17;;;;;;;2.66;100.00;102652.75;4787114;30;20122;-79
2022/03/02 01:28:50;;;;;;;338.73;38.80;;;;;;;2.69;100.00;102653.41;4772154;30;20535;-79
2022/03/02 01:31:16;;;;;;;469.83;41.33;;;;;;;2.75;100.00;102663.63;4769553;30;20088;-80
2022/03/02 01:33:41;;;;;;;1171.38;54.95;;;;;;;2.70;100.00;102649.78;4772797;29;20035;-80
2022/03/02 01:36:07;;;;;;;797.08;45.78;;;;;;;2.75;100.00;102668.09;4770252;30;20051;-79
2022/03/02 01:38:33;;;;;;;189.38;31.45;;;;;;;2.82;100.00;102658.75;4771188;30;20045;-79
2022/03/02 01:40:58;;;;;;;251.57;30.25;;;;;;;2.81;100.00;102644.59;4772067;30;20071;-79
2022/03/02 01:43:27;;;;;;;418.55;35.25;;;;;;;2.86;100.00;102638.97;4783763;29;20047;-79
2022/03/02 01:45:53;;;;;;;545.10;41.92;;;;;;;2.87;100.00;102639.81;4773367;30;20358;-79
2022/03/02 01:48:18;;;;;;;569.72;41.40;;;;;;;2.70;100.00;102617.88;4771164;30;20032;-79
2022/03/02 01:50:44;;;;;;;667.00;39.80;;;;;;;2.78;100.00;102627.97;4772853;30;20429;-79
2022/03/02 01:53:09;;;;;;;132.30;25.77;;;;;;;2.70;100.00;102628.50;4776887;30;20123;-79
2022/03/02 01:55:35;;;;;;;440.20;32.53;;;;;;;2.58;100.00;102606.28;4782215;29;20071;-79
2022/03/02 01:58:00;;;;;;;367.73;32.25;;;;;;;2.58;100.00;102613.38;4767996;30;20054;-79
2022/03/02 02:00:26;;;;;;;162.10;24.98;;;;;;;2.61;100.00;102631.78;4785747;29;20071;-79
2022/03/02 02:02:52;;;;;;;74.35;22.27;;;;;;;2.56;100.00;102617.97;4770705;30;20097;-79
2022/03/02 02:05:18;;;;;;;154.57;23.85;;;;;;;2.49;100.00;102624.63;4770943;30;20684;-79
2022/03/02 02:07:44;;;;;;;341.42;28.02;;;;;;;2.03;100.00;102564.75;4772016;30;20039;-79
2022/03/02 02:10:10;;;;;;;286.55;25.52;;;;;;;2.30;100.00;102620.53;4772158;30;20035;-79
2022/03/02 02:12:36;;;;;;;176.82;23.95;;;;;;;2.22;100.00;102619.31;4771723;30;20490;-79
2022/03/02 02:15:04;;;;;;;76.18;18.63;;;;;;;2.09;100.00;102603.34;4780558;30;20078;-79
2022/03/02 02:17:30;;;;;;;48.75;15.50;;;;;;;2.07;100.00;102611.41;4779967;30;20046;-79
2022/03/02 02:19:55;;;;;;;48.50;15.55;;;;;;;2.06;100.00;102619.47;4775125;29;20059;-80
2022/03/02 02:22:21;;;;;;;48.28;14.70;;;;;;;2.04;100.00;102624.03;4772561;30;20122;-79
2022/03/02 02:24:47;;;;;;;38.75;12.50;;;;;;;1.98;100.00;102616.44;4772421;30;20063;-79
2022/03/02 02:27:14;;;;;;;40.03;12.90;;;;;;;1.96;100.00;102626.34;4770216;30;20027;-80
2022/03/02 02:29:42;;;;;;;41.50;13.88;;;;;;;1.92;100.00;102615.06;4780067;30;20031;-80
2022/03/02 02:32:09;;;;;;;47.28;15.02;;;;;;;1.86;100.00;102620.75;4792500;29;20054;-79
2022/03/02 02:34:35;;;;;;;66.05;15.85;;;;;;;1.77;100.00;102613.38;4784383;29;20035;-79
2022/03/02 02:37:05;;;;;;;34.88;13.40;;;;;;;1.57;100.00;102599.56;4770245;30;20035;-79
2022/03/02 02:39:31;;;;;;;40.83;13.55;;;;;;;1.50;100.00;102605.34;4770935;30;20115;-79
2022/03/02 02:42:03;;;;;;;47.78;13.38;;;;;;;1.55;100.00;102627.13;4768057;30;20111;-79
2022/03/02 02:44:29;;;;;;;42.47;14.43;;;;;;;1.42;100.00;102616.41;4785166;29;20426;-79
2022/03/02 02:46:54;;;;;;;220.05;19.05;;;;;;;1.51;100.00;102623.81;4770667;30;20052;-79
2022/03/02 02:49:20;;;;;;;125.00;15.07;;;;;;;1.39;100.00;102601.56;4768444;30;20067;-79
2022/03/02 02:51:45;;;;;;;94.10;13.82;;;;;;;1.33;100.00;102609.06;4785263;29;20035;-79
2022/03/02 02:54:10;;;;;;;441.73;22.65;;;;;;;1.39;100.00;102621.91;4785484;29;20031;-79
2022/03/02 02:56:36;;;;;;;344.85;20.20;;;;;;;1.35;100.00;102620.41;4770443;30;20036;-79
2022/03/02 02:59:02;;;;;;;246.52;16.60;;;;;;;1.33;100.00;102615.22;4769911;30;20039;-79
2022/03/02 03:01:29;;;;;;;153.85;14.48;;;;;;;1.32;100.00;102609.97;4781363;30;20496;-79
2022/03/02 03:03:55;;;;;;;281.27;16.77;;;;;;;1.33;100.00;102606.41;4789243;30;20062;-79
2022/03/02 03:06:20;;;;;;;292.83;16.30;;;;;;;1.22;100.00;102584.97;4780325;29;20035;-79
2022/03/02 03:08:45;;;;;;;247.93;16.55;;;;;;;1.22;100.00;102587.63;4769490;30;20561;-79
2022/03/02 03:11:11;;;;;;;161.25;14.20;;;;;;;1.18;100.00;102586.97;4767999;30;20036;-78
2022/03/02 03:13:36;;;;;;;176.68;12.80;;;;;;;1.23;100.00;102595.50;4769747;30;20085;-79
2022/03/02 03:16:02;;;;;;;252.90;14.55;;;;;;;1.22;100.00;102595.59;4771660;30;20046;-79
2022/03/02 03:18:27;;;;;;;103.45;11.68;;;;;;;1.24;100.00;102593.69;4768581;30;20046;-79
2022/03/02 03:20:52;;;;;;;152.38;12.65;;;;;;;1.24;100.00;102604.31;4769990;30;20120;-79
2022/03/02 03:23:18;;;;;;;155.35;13.02;;;;;;;1.22;100.00;102595.59;4768887;30;20123;-79
2022/03/02 03:25:44;;;;;;;300.77;16.20;;;;;;;1.22;100.00;102604.38;4768644;30;20429;-79
2022/03/02 03:28:09;;;;;;;158.98;14.43;;;;;;;1.21;100.00;102610.66;4770211;30;20115;-79
2022/03/02 03:30:35;;;;;;;372.90;17.50;;;;;;;1.20;100.00;102608.09;4771339;30;20105;-78
2022/03/02 03:33:02;;;;;;;179.90;13.35;;;;;;;1.15;100.00;102609.22;4771066;30;20073;-78
2022/03/02 03:35:27;;;;;;;227.65;14.10;;;;;;;1.12;100.00;102608.53;4769765;30;20071;-78
2022/03/02 03:37:53;;;;;;;183.68;10.80;;;;;;;1.10;100.00;102613.13;4769844;30;20511;-79
2022/03/02 03:40:21;;;;;;;144.73;11.13;;;;;;;1.09;100.00;102614.91;4775008;30;20204;-79
2022/03/02 03:42:48;;;;;;;56.75;8.35;;;;;;;1.07;100.00;102621.25;4772462;30;20032;-79
2022/03/02 03:45:15;;;;;;;63.95;8.73;;;;;;;1.01;100.00;102605.72;4769443;30;20179;-79
2022/03/02 03:47:41;;;;;;;56.85;8.40;;;;;;;0.97;100.00;102601.53;4769816;30;20039;-79
2022/03/02 03:50:07;;;;;;;262.00;10.75;;;;;;;0.98;100.00;102611.19;4769858;30;20043;-78
2022/03/02 03:52:33;;;;;;;163.13;9.32;;;;;;;1.00;100.00;102617.25;4770590;30;20425;-79
2022/03/02 03:54:59;;;;;;;292.02;11.45;;;;;;;0.88;100.00;102603.78;4769315;30;20036;-79
2022/03/02 03:57:24;;;;;;;173.93;10.48;;;;;;;1.00;100.00;102611.97;4784269;30;20115;-78
2022/03/02 03:59:50;;;;;;;174.30;8.25;;;;;;;0.91;100.00;102597.44;4767728;30;20455;-78
2022/03/02 04:02:15;;;;;;;292.55;10.65;;;;;;;0.99;100.00;102603.13;4770094;30;20059;-79
2022/03/02 04:04:41;;;;;;;188.35;8.68;;;;;;;1.02;100.00;102599.44;4769416;29;20108;-78
2022/03/02 04:07:06;;;;;;;119.80;8.00;;;;;;;0.93;100.00;102579.69;4767413;30;20463;-79
2022/03/02 04:09:31;;;;;;;96.78;7.75;;;;;;;1.01;100.00;102597.75;4786308;30;20112;-79
2022/03/02 04:11:57;;;;;;;235.30;9.77;;;;;;;0.88;100.00;102579.09;4768063;30;20105;-79
2022/03/02 04:14:23;;;;;;;167.50;9.27;;;;;;;0.92;100.00;102586.75;4786375;29;20332;-78
2022/03/02 04:16:48;;;;;;;225.20;9.10;;;;;;;0.86;100.00;102584.50;4769412;30;20040;-78
2022/03/02 04:19:13;;;;;;;130.13;7.07;;;;;;;0.84;100.00;102580.22;4796621;29;20048;-78
2022/03/02 04:21:40;;;;;;;254.55;10.88;;;;;;;0.79;100.00;102577.81;4787472;29;20043;-79
2022/03/02 04:24:05;;;;;;;121.88;7.53;;;;;;;0.78;100.00;102575.28;4772798;30;20040;-79
2022/03/02 04:26:31;;;;;;;174.23;8.15;;;;;;;0.78;100.00;102570.84;4770109;30;20336;-78
2022/03/02 04:28:56;;;;;;;128.15;7.80;;;;;;;0.74;100.00;102561.38;4770213;30;20036;-78
2022/03/02 04:31:22;;;;;;;86.35;8.40;;;;;;;0.82;100.00;102555.59;4769915;30;20035;-78
2022/03/02 04:33:47;;;;;;;74.00;7.25;;;;;;;0.58;100.00;102510.25;4791933;29;20039;-79
2022/03/02 04:36:13;;;;;;;63.10;6.80;;;;;;;0.79;100.00;102529.28;4772481;30;20044;-79
2022/03/02 04:38:38;;;;;;;64.32;6.28;;;;;;;0.85;100.00;102534.22;4769707;30;20050;-78
2022/03/02 04:41:04;;;;;;;58.97;5.65;;;;;;;0.86;100.00;102539.44;4781982;29;20043;-79
2022/03/02 04:43:29;;;;;;;74.90;6.15;;;;;;;0.80;100.00;102523.91;4769337;30;20092;-78
2022/03/02 04:45:55;;;;;;;42.35;5.10;;;;;;;0.85;100.00;102543.00;4754435;30;20047;-79
2022/03/02 04:48:20;;;;;;;86.88;6.82;;;;;;;0.86;100.00;102555.34;4771005;30;20036;-79
2022/03/02 04:50:46;;;;;;;37.67;5.50;;;;;;;0.85;100.00;102556.25;4775343;30;20038;-78
2022/03/02 04:53:14;;;;;;;99.97;5.97;;;;;;;0.69;100.00;102537.78;4753020;30;20097;-78
2022/03/02 04:55:40;;;;;;;65.85;5.82;;;;;;;0.85;100.00;102558.91;4770049;30;20036;-77
2022/03/02 04:58:05;;;;;;;92.70;5.88;;;;;;;0.74;100.00;102537.53;4768227;30;20040;-78
2022/03/02 05:00:35;;;;;;;147.15;7.00;;;;;;;0.86;100.00;102557.09;4769926;30;20128;-78
2022/03/02 05:03:04;;;;;;;90.15;6.82;;;;;;;0.85;100.00;102548.31;4767344;30;20503;-78
2022/03/02 05:05:31;;;;;;;96.68;6.82;;;;;;;0.87;100.00;102546.44;4770761;30;20345;-77
2022/03/02 05:07:57;;;;;;;41.53;5.22;;;;;;;0.86;100.00;102546.50;4770822;30;20047;-79
2022/03/02 05:10:24;;;;;;;118.95;6.35;;;;;;;0.83;100.00;102542.28;4772581;30;20032;-78
2022/03/02 05:12:49;;;;;;;207.13;7.63;;;;;;;0.71;100.00;102524.47;4771590;30;20040;-79
2022/03/02 05:15:16;;;;;;;128.13;6.47;;;;;;;0.72;100.00;102520.84;4775491;30;20099;-78
2022/03/02 05:17:42;;;;;;;140.18;7.47;;;;;;;0.91;100.00;102553.25;4772637;30;20039;-79
2022/03/02 05:20:09;;;;;;;103.13;6.43;;;;;;;0.92;100.00;102554.94;4772174;30;20090;-79
2022/03/02 05:22:35;;;;;;;130.73;7.18;;;;;;;0.97;100.00;102559.13;4771203;30;20044;-78
2022/03/02 05:25:02;;;;;;;139.93;6.55;;;;;;;0.78;100.00;102531.09;4774329;30;20039;-80
2022/03/02 05:27:27;;;;;;;115.05;6.63;;;;;;;0.94;100.00;102565.47;4778739;30;20114;-79
2022/03/02 05:29:53;;;;;;;156.50;7.28;;;;;;;0.92;100.00;102567.34;4770772;30;20055;-79
2022/03/02 05:32:18;;;;;;;228.38;8.23;;;;;;;0.98;100.00;102576.72;4776936;30;20037;-79
2022/03/02 05:34:43;;;;;;;243.90;10.05;;;;;;;0.95;100.00;102569.81;4780393;30;20050;-79
2022/03/02 05:37:09;;;;;;;214.52;7.75;;;;;;;0.93;100.00;102561.13;4778599;30;20050;-80
2022/03/02 05:39:34;;;;;;;277.00;8.07;;;;;;;0.84;100.00;102551.91;4781244;29;20065;-79
2022/03/02 05:42:00;;;;;;;165.00;6.97;;;;;;;0.76;100.00;102543.56;4777512;30;20478;-78
2022/03/02 05:44:26;;;;;;;172.13;7.63;;;;;;;0.87;100.00;102567.63;4771269;30;20092;-78
2022/03/02 05:46:51;;;;;;;90.25;5.40;;;;;;;0.82;100.00;102567.03;4767693;30;20040;-77
2022/03/02 05:49:17;;;;;;;43.15;4.68;;;;;;;0.80;100.00;102557.50;4769285;30;20044;-78
2022/03/02 05:51:42;;;;;;;32.92;4.22;;;;;;;0.75;100.00;102571.00;4765588;30;20035;-78
2022/03/02 05:54:08;;;;;;;22.00;4.25;;;;;;;0.67;100.00;102565.34;4767593;30;20044;-78
2022/03/02 05:56:37;;;;;;;13.20;3.63;;;;;;;0.65;100.00;102569.88;4768278;30;20119;-78
2022/03/02 05:59:04;;;;;;;34.13;4.45;;;;;;;0.70;100.00;102581.91;4768705;30;20084;-78
2022/03/02 06:01:29;;;;;;;34.58;4.47;;;;;;;0.72;100.00;102581.78;4767053;30;20031;-78
2022/03/02 06:03:55;;;;;;;92.15;6.03;;;;;;;0.71;100.00;102588.03;4769714;29;20557;-78
2022/03/02 06:06:20;;;;;;;30.92;4.22;;;;;;;0.56;100.00;102562.44;4767918;30;20047;-78
2022/03/02 06:08:45;;;;;;;43.10;4.13;;;;;;;0.67;100.00;102582.09;4777584;30;20094;-79
2022/03/02 06:11:11;;;;;;;11.32;3.15;;;;;;;0.66;100.00;102579.50;4772355;30;20046;-78
2022/03/02 06:13:37;;;;;;;49.20;5.22;;;;;;;0.65;100.00;102576.00;4768872;30;20486;-78
2022/03/02 06:16:03;;;;;;;10.88;4.10;;;;;;;0.55;100.00;102574.00;4765352;30;20048;-78
2022/03/02 06:18:29;;;;;;;26.63;4.40;;;;;;;0.44;100.00;102564.03;4766673;30;20060;-78
2022/03/02 06:21:00;;;;;;;16.45;3.65;;;;;;;0.46;100.00;102581.56;4765394;30;20640;-78
2022/03/02 06:23:31;;;;;;;12.05;3.85;;;;;;;0.42;100.00;102587.94;4767362;30;20103;-78
2022/03/02 06:25:57;;;;;;;14.20;3.75;;;;;;;0.42;100.00;102584.47;4767590;30;20118;-78
2022/03/02 06:28:26;;;;;;;11.70;4.00;;;;;;;0.42;100.00;102585.31;4773131;30;20119;-78
2022/03/02 06:30:52;;;;;;;8.32;3.78;;;;;;;0.38;100.00;102570.53;4756961;30;20124;-78
2022/03/02 06:33:19;;;;;;;9.55;3.13;;;;;;;0.49;100.00;102582.31;4770984;30;20055;-78
2022/03/02 06:35:46;;;;;;;15.98;3.90;;;;;;;0.50;100.00;102578.69;4768360;30;20047;-77
2022/03/02 06:38:13;;;;;;;12.23;3.95;;;;;;;0.38;100.00;102557.31;4768519;30;20455;-78
2022/03/02 06:40:40;;;;;;;9.32;4.22;;;;;;;0.52;100.00;102566.22;4769906;30;20055;-78
2022/03/02 06:43:08;;;;;;;12.50;3.92;;;;;;;0.55;100.00;102574.00;4784750;29;20091;-78
2022/03/02 06:45:50;;;;;;;12.13;3.90;;;;;;;0.56;100.00;102581.00;4771631;30;20067;-77
2022/03/02 06:48:20;;;;;;;8.68;3.38;;;;;;;0.58;100.00;102581.78;4776026;30;20058;-78
2022/03/02 06:50:50;;;;;;;9.90;3.40;;;;;;;0.60;100.00;102578.09;4776750;29;20504;-78
2022/03/02 06:53:16;;;;;;;8.70;3.35;;;;;;;0.63;100.00;102575.25;4776530;30;20114;-78
2022/03/02 06:55:43;;;;;;;10.52;3.83;;;;;;;0.66;100.00;102571.56;4780135;30;20514;-77
2022/03/02 06:58:10;;;;;;;17.83;5.00;;;;;;;0.68;100.00;102578.47;4774950;30;20032;-78
2022/03/02 07:00:37;;;;;;;10.88;3.78;;;;;;;0.59;100.00;102555.19;4763893;30;20039;-78
2022/03/02 07:03:11;;;;;;;14.90;3.72;;;;;;;0.73;100.00;102578.22;4765888;30;20031;-78
2022/03/02 07:05:38;;;;;;;9.63;3.33;;;;;;;0.78;100.00;102575.28;4767924;30;20027;-79
2022/03/02 07:08:05;;;;;;;8.48;3.53;;;;;;;0.81;100.00;102568.00;4766686;30;20102;-80
2022/03/02 07:10:36;;;;;;;5.78;2.58;;;;;;;0.40;100.00;102496.31;4765940;30;20054;-79
2022/03/02 07:13:05;;;;;;;8.88;2.70;;;;;;;0.89;100.00;102580.78;4767733;30;20459;-81
2022/03/02 07:15:32;;;;;;;14.57;2.40;;;;;;;0.99;100.00;102587.22;4766900;30;20074;-79
2022/03/02 07:18:02;;;;;;;12.75;2.58;;;;;;;1.02;100.00;102570.28;4769577;30;20105;-80
2022/03/02 07:20:28;;;;;;;11.45;2.90;;;;;;;1.20;100.00;102584.25;4768482;30;20060;-81
2022/03/02 07:22:56;;;;;;;20.52;3.40;;;;;;;1.16;100.00;102570.31;4764617;30;20127;-79
2022/03/02 07:25:24;;;;;;;13.73;3.75;;;;;;;1.30;100.00;102591.53;4765211;30;20032;-77
2022/03/02 07:27:50;;;;;;;13.05;3.20;;;;;;;1.25;100.00;102555.63;4764455;30;20028;-80
2022/03/02 07:30:15;;;;;;;14.23;4.18;;;;;;;1.46;100.00;102570.22;4780820;29;20379;-78
2022/03/02 07:32:45;;;;;;;10.98;4.32;;;;;;;1.50;100.00;102565.56;4770251;30;20035;-79
2022/03/02 07:35:12;;;;;;;12.90;4.00;;;;;;;1.55;100.00;102566.94;4776584;29;20031;-78
2022/03/02 07:37:38;;;;;;;21.83;4.45;;;;;;;1.64;100.00;102558.41;4781656;30;20027;-77
2022/03/02 07:40:05;;;;;;;17.48;3.13;;;;;;;1.76;100.00;102563.91;4772019;29;20530;-78
2022/03/02 07:42:32;;;;;;;19.13;3.28;;;;;;;1.89;100.00;102559.50;4776340;30;20034;-80
2022/03/02 07:44:58;;;;;;;16.80;3.25;;;;;;;1.91;100.00;102552.28;4775963;30;20035;-78
2022/03/02 07:47:24;;;;;;;20.52;3.53;;;;;;;2.15;100.00;102570.22;4770098;30;20276;-79
2022/03/02 07:49:50;;;;;;;18.15;4.97;;;;;;;2.23;100.00;102557.28;4775790;30;20451;-80
2022/03/02 07:52:17;;;;;;;20.15;3.67;;;;;;;2.38;100.00;102563.38;4767405;30;20413;-79
2022/03/02 07:54:43;;;;;;;14.50;3.47;;;;;;;2.35;100.00;102567.97;4766589;30;20028;-79
2022/03/02 07:57:11;;;;;;;15.63;3.00;;;;;;;2.40;100.00;102572.09;4768507;30;20042;-79
2022/03/02 07:59:39;;;;;;;21.90;4.07;;;;;;;2.49;100.00;102560.88;4764676;30;20028;-79
2022/03/02 08:02:07;;;;;;;17.60;3.72;;;;;;;2.51;100.00;102562.44;4767281;30;20039;-78
2022/03/02 08:04:34;;;;;;;19.10;3.97;;;;;;;2.61;100.00;102556.50;4776311;30;20042;-78
2022/03/02 08:07:00;;;;;;;25.67;4.15;;;;;;;2.61;100.00;102557.34;4767881;30;20501;-79
2022/03/02 08:09:25;;;;;;;11.15;3.72;;;;;;;2.51;100.00;102553.63;4767335;30;20035;-77
2022/03/02 08:11:50;;;;;;;14.98;4.45;;;;;;;2.47;100.00;102558.28;4768541;30;20184;-79
2022/03/02 08:14:21;;;;;;;14.02;4.45;;;;;;;2.48;100.00;102543.19;4770974;30;20023;-79
2022/03/02 08:16:47;;;;;;;11.85;4.97;;;;;;;2.73;100.00;102561.00;4784099;29;20051;-78
2022/03/02 08:19:13;;;;;;;18.75;4.88;;;;;;;2.77;100.00;102549.19;4776823;29;20035;-77
2022/03/02 08:21:42;;;;;;;12.25;4.50;;;;;;;2.90;100.00;102562.50;4774536;29;20034;-78
2022/03/02 08:24:09;;;;;;;12.70;4.30;;;;;;;3.04;100.00;102562.38;4777614;29;20040;-78
2022/03/02 08:26:39;;;;;;;13.43;4.05;;;;;;;3.20;100.00;102571.00;4753526;30;20115;-78
2022/03/02 08:29:10;;;;;;;13.23;2.85;;;;;;;3.30;100.00;102568.53;4768889;30;20470;-78
2022/03/02 08:31:39;;;;;;;16.20;3.40;;;;;;;3.41;100.00;102565.13;4767174;30;20027;-78
2022/03/02 08:34:06;;;;;;;19.20;3.03;;;;;;;3.32;100.00;102549.81;4764636;30;20434;-78
2022/03/02 08:36:33;;;;;;;27.10;3.20;;;;;;;3.56;100.00;102572.00;4766676;30;20421;-78
2022/03/02 08:39:17;;;;;;;27.23;5.93;;;;;;;3.51;100.00;102563.53;4770121;30;20371;-78
2022/03/02 08:41:43;;;;;;;17.02;5.82;;;;;;;3.47;100.00;102562.88;4775701;29;20063;-78
2022/03/02 08:44:12;;;;;;;16.40;4.70;;;;;;;3.19;100.00;102513.44;4785471;30;20055;-78
2022/03/02 08:46:38;;;;;;;17.80;4.30;;;;;;;3.59;100.00;102565.63;4775483;30;20074;-78
2022/03/02 08:49:05;;;;;;;16.23;3.22;;;;;;;3.69;100.00;102562.19;4772519;30;20047;-79
2022/03/02 08:51:33;;;;;;;21.10;3.28;;;;;;;3.68;100.00;102547.19;4768033;30;20064;-78
2022/03/02 08:54:01;;;;;;;21.67;3.03;;;;;;;3.84;100.00;102560.22;4771137;30;20047;-78
2022/03/02 08:56:27;;;;;;;25.42;3.33;;;;;;;3.96;100.00;102561.97;4769330;30;20059;-78
2022/03/02 08:58:54;;;;;;;24.02;3.92;;;;;;;4.07;100.00;102568.31;4797590;29;20140;-78
2022/03/02 09:01:21;;;;;;;18.23;2.63;;;;;;;4.13;100.00;102551.88;4779924;29;20047;-78
2022/03/02 09:03:51;;;;;;;25.20;2.70;;;;;;;4.31;100.00;102560.34;4772603;30;20043;-78
2022/03/02 09:06:20;;;;;;;23.85;3.08;;;;;;;4.11;100.00;102511.22;4773600;30;20032;-78
2022/03/02 09:08:46;;;;;;;28.73;3.00;;;;;;;4.51;100.00;102550.84;4781527;30;20035;-78
2022/03/02 09:11:12;;;;;;;22.58;2.67;;;;;;;4.61;100.00;102551.84;4778902;29;20023;-78
2022/03/02 09:13:38;;;;;;;20.40;2.40;;;;;;;4.74;100.00;102562.41;4773232;30;20036;-78
2022/03/02 09:16:05;;;;;;;19.13;2.47;;;;;;;4.84;100.00;102553.59;4774237;30;20328;-78
2022/03/02 09:18:31;;;;;;;20.40;3.00;;;;;;;4.86;100.00;102530.28;4779152;30;20027;-78
2022/03/02 09:21:02;;;;;;;24.58;2.90;;;;;;;5.00;100.00;102544.38;4780851;30;20314;-79
2022/03/02 09:23:30;;;;;;;24.52;2.28;;;;;;;5.12;100.00;102543.41;4781824;30;20035;-78
2022/03/02 09:26:04;;;;;;;23.05;2.28;;;;;;;5.21;100.00;102539.19;4782821;29;20040;-79
2022/03/02 09:28:33;;;;;;;20.80;2.53;;;;;;;5.27;100.00;102539.56;4779381;30;20047;-78
2022/03/02 09:31:03;;;;;;;25.58;2.83;;;;;;;5.31;100.00;102530.31;4772026;30;20035;-78
2022/03/02 09:33:29;;;;;;;20.33;2.55;;;;;;;5.30;100.00;102519.78;4778422;30;20042;-78
2022/03/02 09:35:56;;;;;;;19.40;2.72;;;;;;;5.54;100.00;102532.97;4769117;29;20036;-78
2022/03/02 09:38:24;;;;;;;13.23;2.40;;;;;;;5.53;100.00;102528.59;4771725;30;20200;-79
2022/03/02 09:40:51;;;;;;;13.68;1.92;;;;;;;5.62;100.00;102539.38;4780869;29;20035;-79
2022/03/02 09:43:19;;;;;;;17.25;2.22;;;;;;;5.63;100.00;102535.75;4776179;30;20070;-79
2022/03/02 09:45:53;;;;;;;16.73;1.98;;;;;;;5.72;100.00;102534.13;4769445;30;20405;-79
2022/03/02 09:48:31;;;;;;;14.63;1.97;;;;;;;5.82;100.00;102537.75;4770944;30;20051;-78
2022/03/02 09:51:00;;;;;;;18.40;2.08;;;;;;;5.84;100.00;102538.47;4777042;30;20032;-79
2022/03/02 09:53:28;;;;;;;19.73;2.33;;;;;;;5.86;100.00;102533.00;4776805;29;20019;-79
2022/03/02 09:55:56;;;;;;;15.25;2.13;;;;;;;5.95;100.00;102532.28;4771508;30;20126;-79
2022/03/02 09:58:24;;;;;;;19.70;1.92;;;;;;;6.00;100.00;102531.91;4778928;30;20038;-78
2022/03/02 10:00:53;;;;;;;11.38;2.22;;;;;;;6.04;100.00;102536.88;4780010;30;20027;-79
2022/03/02 10:03:20;;;;;;;14.55;2.28;;;;;;;5.91;100.00;102529.97;4765959;30;20130;-80
2022/03/02 10:05:48;;;;;;;11.50;2.08;;;;;;;5.80;100.00;102534.38;4776517;30;20046;-80
2022/03/02 10:08:19;;;;;;;18.73;2.25;;;;;;;5.69;100.00;102549.56;4785765;29;20027;-78
2022/03/02 10:10:47;;;;;;;14.43;2.22;;;;;;;5.73;100.00;102556.34;4782329;30;20105;-81
2022/03/02 10:13:14;;;;;;;15.43;2.45;;;;;;;5.57;100.00;102509.53;4780159;30;20382;-81
2022/03/02 10:15:41;;;;;;;17.40;2.05;;;;;;;5.88;100.00;102545.25;4774415;30;20035;-80
2022/03/02 10:18:11;;;;;;;20.17;2.20;;;;;;;5.92;100.00;102558.38;4780139;30;20046;-81
2022/03/02 10:20:49;;;;;;;19.77;2.55;;;;;;;5.92;100.00;102551.19;4782253;30;20086;-80
2022/03/02 10:23:34;;;;;;;19.38;2.40;;;;;;;5.91;100.00;102538.81;4781169;30;20116;-81
2022/03/02 10:26:08;;;;;;;16.27;2.88;;;;;;;5.99;100.00;102538.22;4787281;30;20035;-82
2022/03/02 10:28:48;;;;;;;13.80;2.10;;;;;;;6.08;100.00;102534.78;4777349;30;20035;-81
2022/03/02 10:31:33;;;;;;;16.88;1.88;;;;;;;6.13;100.00;102554.00;4784092;29;20050;-81
2022/03/02 10:34:10;;;;;;;;;;;;;;;6.05;100.00;102543.06;4790585;30;20036;-80
2022/03/02 10:36:41;;;;;;;13.93;2.28;;;;;;;5.95;100.00;102548.31;4765178;30;20249;-80
2022/03/02 10:39:07;;;;;;;13.40;1.92;;;;;;;5.82;100.00;102560.94;4775190;30;20085;-81
2022/03/02 10:41:37;;;;;;;18.73;2.55;;;;;;;5.69;100.00;102565.59;4781243;30;20431;-81
2022/03/02 10:44:15;;;;;;;16.13;2.22;;;;;;;5.67;100.00;102573.75;4781569;30;20035;-82
2022/03/02 10:46:46;;;;;;;17.05;2.22;;;;;;;5.71;100.00;102560.97;4781211;30;20092;-81
2022/03/02 10:49:20;;;;;;;10.32;1.90;;;;;;;5.82;100.00;102566.28;4778134;30;20072;-81
2022/03/02 10:51:47;;;;;;;13.02;2.03;;;;;;;5.81;100.00;102532.53;4780895;30;20089;-81
2022/03/02 10:54:17;;;;;;;20.50;2.50;;;;;;;6.08;100.00;102535.63;4784124;30;20036;-80
2022/03/02 10:56:44;;;;;;;15.95;2.10;;;;;;;6.19;100.00;102536.56;4785144;29;20038;-80
2022/03/02 10:59:16;;;;;;;13.30;2.67;;;;;;;6.25;100.00;102525.38;4779943;29;20031;-81
2022/03/02 11:01:44;;;;;;;12.27;1.83;;;;;;;6.21;100.00;102511.41;4788590;30;20035;-81
2022/03/02 11:04:09;;;;;;;14.48;2.17;;;;;;;6.31;100.00;102532.88;4793863;30;20028;-81
2022/03/02 11:06:37;;;;;;;18.65;2.10;;;;;;;6.28;100.00;102533.13;4771323;30;20035;-81
2022/03/02 11:09:03;;;;;;;12.52;2.20;;;;;;;6.26;100.00;102525.25;4797551;30;20531;-79
2022/03/02 11:11:32;;;;;;;9.48;1.40;;;;;;;6.23;100.00;102530.84;4773324;29;20032;-79